createdAt,value
2017-12-30T00:00:53.918Z,97617.95
2017-12-30T00:03:21.873Z,97623.53
2017-12-30T00:05:49.324Z,97621.91
2017-12-30T00:08:16.772Z,97625.86
2017-12-30T00:10:44.616Z,97614.78
2017-12-30T00:13:12.076Z,97623.73
2017-12-30T00:15:39.538Z,97620.96
2017-12-30T00:18:07.342Z,97619.89
2017-12-30T00:20:34.813Z,97609.21
2017-12-30T00:23:02.294Z,97599.19
2017-12-30T00:25:29.984Z,97609.41
2017-12-30T00:27:57.451Z,97610.95
2017-12-30T00:30:24.973Z,97617.28
2017-12-30T00:32:52.957Z,97624.23
2017-12-30T00:35:20.416Z,97623.73
2017-12-30T00:37:47.872Z,97624.66
2017-12-30T00:40:15.658Z,97630.39
2017-12-30T00:42:43.111Z,97642.76
2017-12-30T00:45:10.560Z,97629.11
2017-12-30T00:47:38.291Z,97640.90
2017-12-30T00:50:05.743Z,97648.61
2017-12-30T00:52:33.194Z,97647.50
2017-12-30T00:55:01.033Z,97661.90
2017-12-30T00:57:28.476Z,97656.93
2017-12-30T00:59:55.936Z,97654.67
2017-12-30T01:02:24.962Z,97653.22
2017-12-30T01:04:52.424Z,97662.47
2017-12-30T01:07:19.882Z,97659.34
2017-12-30T01:09:47.648Z,97668.06
2017-12-30T01:12:15.106Z,97659.75
2017-12-30T01:14:42.570Z,97666.63
2017-12-30T01:17:10.332Z,97659.00
2017-12-30T01:19:37.781Z,97667.22
2017-12-30T01:22:05.222Z,97652.38
2017-12-30T01:24:33.022Z,97663.89
2017-12-30T01:27:00.476Z,97661.52
2017-12-30T01:29:27.976Z,97653.48
2017-12-30T01:31:55.697Z,97653.39
2017-12-30T01:34:23.160Z,97656.75
2017-12-30T01:36:50.633Z,97659.27
2017-12-30T01:39:18.692Z,97658.73
2017-12-30T01:41:46.152Z,97658.02
2017-12-30T01:44:13.612Z,97655.92
2017-12-30T01:46:42.000Z,97652.08
2017-12-30T01:49:09.469Z,97654.28
2017-12-30T01:51:36.919Z,97654.16
2017-12-30T01:54:04.678Z,97650.23
2017-12-30T01:56:32.142Z,97638.30
2017-12-30T01:58:59.594Z,97646.13
2017-12-30T02:01:27.372Z,97645.89
2017-12-30T02:03:55.571Z,97625.85
2017-12-30T02:06:23.033Z,97654.60
2017-12-30T02:08:50.820Z,97654.16
2017-12-30T02:11:18.287Z,97637.75
2017-12-30T02:13:46.153Z,97635.57
2017-12-30T02:16:14.018Z,97634.02
2017-12-30T02:18:41.483Z,97632.11
2017-12-30T02:21:08.943Z,97638.13
2017-12-30T02:23:36.980Z,97642.25
2017-12-30T02:26:04.424Z,97639.30
2017-12-30T02:28:31.886Z,97627.66
2017-12-30T02:30:59.646Z,97633.06
2017-12-30T02:33:27.114Z,97629.52
2017-12-30T02:35:54.582Z,97637.44
2017-12-30T02:38:22.640Z,97632.48
2017-12-30T02:40:50.107Z,97632.21
2017-12-30T02:43:17.560Z,97639.80
2017-12-30T02:45:45.646Z,97627.70
2017-12-30T02:48:13.107Z,97625.61
2017-12-30T02:50:40.573Z,97625.96
2017-12-30T02:53:08.331Z,97615.98
2017-12-30T02:55:35.798Z,97622.94
2017-12-30T02:58:03.272Z,97625.08
2017-12-30T03:00:31.012Z,97626.86
2017-12-30T03:02:58.473Z,97622.58
2017-12-30T03:05:26.620Z,97627.91
2017-12-30T03:07:54.316Z,97621.92
2017-12-30T03:10:21.781Z,97624.23
2017-12-30T03:12:49.232Z,97636.83
2017-12-30T03:15:17.010Z,97638.73
2017-12-30T03:17:44.472Z,97648.03
2017-12-30T03:20:11.931Z,97650.49
2017-12-30T03:22:39.695Z,97647.69
2017-12-30T03:25:07.154Z,97644.06
2017-12-30T03:27:34.634Z,97648.61
2017-12-30T03:30:02.369Z,97642.02
2017-12-30T03:32:29.833Z,97646.11
2017-12-30T03:34:57.296Z,97644.91
2017-12-30T03:37:25.060Z,97642.41
2017-12-30T03:39:52.530Z,97651.98
2017-12-30T03:42:20.061Z,97656.16
2017-12-30T03:44:48.057Z,97648.89
2017-12-30T03:47:15.520Z,97651.27
2017-12-30T03:49:42.993Z,97659.88
2017-12-30T03:52:10.732Z,97663.48
2017-12-30T03:54:38.203Z,97658.18
2017-12-30T03:57:05.760Z,97667.39
2017-12-30T03:59:33.480Z,97657.95
2017-12-30T04:02:00.953Z,97659.73
2017-12-30T04:04:28.436Z,97662.78
2017-12-30T04:06:56.737Z,97656.77
2017-12-30T04:09:24.200Z,97668.34
2017-12-30T04:11:51.659Z,97667.56
2017-12-30T04:14:19.421Z,97670.73
2017-12-30T04:16:46.882Z,97667.28
2017-12-30T04:19:14.341Z,97675.39
2017-12-30T04:21:42.377Z,97675.91
2017-12-30T04:24:09.840Z,97671.33
2017-12-30T04:26:37.289Z,97678.73
2017-12-30T04:29:05.377Z,97673.11
2017-12-30T04:31:32.850Z,97677.03
2017-12-30T04:34:00.316Z,97680.99
2017-12-30T04:36:28.241Z,97682.61
2017-12-30T04:38:55.706Z,97680.02
2017-12-30T04:41:23.166Z,97686.81
2017-12-30T04:43:51.088Z,97694.34
2017-12-30T04:46:18.542Z,97695.98
2017-12-30T04:48:45.997Z,97699.00
2017-12-30T04:51:13.775Z,97697.31
2017-12-30T04:53:41.240Z,97700.54
2017-12-30T04:56:08.706Z,97712.07
2017-12-30T04:58:36.470Z,97718.42
2017-12-30T05:01:03.924Z,97721.92
2017-12-30T05:03:31.688Z,97721.83
2017-12-30T05:05:59.464Z,97730.44
2017-12-30T05:08:28.441Z,97732.73
2017-12-30T05:10:55.902Z,97739.61
2017-12-30T05:13:23.581Z,97736.78
2017-12-30T05:15:51.046Z,97746.39
2017-12-30T05:18:18.508Z,97750.16
2017-12-30T05:20:46.368Z,97749.50
2017-12-30T05:23:13.832Z,97751.86
2017-12-30T05:25:41.306Z,97763.73
2017-12-30T05:28:09.049Z,97762.03
2017-12-30T05:30:36.497Z,97764.34
2017-12-30T05:33:03.951Z,97759.97
2017-12-30T05:35:31.746Z,97758.34
2017-12-30T05:37:59.208Z,97761.16
2017-12-30T05:40:26.664Z,97766.14
2017-12-30T05:42:54.741Z,97769.78
2017-12-30T05:45:22.482Z,97773.70
2017-12-30T05:47:49.933Z,97767.81
2017-12-30T05:50:17.728Z,97770.71
2017-12-30T05:52:45.176Z,97766.92
2017-12-30T05:55:12.616Z,97766.95
2017-12-30T05:57:40.242Z,97774.97
2017-12-30T06:00:07.704Z,97785.89
2017-12-30T06:02:35.156Z,97778.03
2017-12-30T06:05:03.108Z,97773.90
2017-12-30T06:07:30.564Z,97785.67
2017-12-30T06:09:58.512Z,97795.98
2017-12-30T06:12:26.405Z,97790.84
2017-12-30T06:14:53.863Z,97794.67
2017-12-30T06:17:21.310Z,97802.60
2017-12-30T06:19:49.094Z,97804.50
2017-12-30T06:22:16.557Z,97815.81
2017-12-30T06:24:44.012Z,97818.66
2017-12-30T06:27:11.787Z,97809.72
2017-12-30T06:29:39.249Z,97818.20
2017-12-30T06:32:06.717Z,97821.50
2017-12-30T06:34:34.485Z,97824.29
2017-12-30T06:37:01.936Z,97824.22
2017-12-30T06:39:29.403Z,97831.44
2017-12-30T06:41:57.153Z,97831.36
2017-12-30T06:44:24.684Z,97823.05
2017-12-30T06:46:52.143Z,97826.45
2017-12-30T06:49:19.841Z,97826.84
2017-12-30T06:51:47.306Z,97822.78
2017-12-30T06:54:14.768Z,97817.88
2017-12-30T06:56:42.532Z,97817.03
2017-12-30T06:59:09.987Z,97814.86
2017-12-30T07:01:37.451Z,97820.35
2017-12-30T07:04:05.229Z,97819.64
2017-12-30T07:06:32.692Z,97831.30
2017-12-30T07:09:00.152Z,97834.63
2017-12-30T07:11:29.142Z,97839.36
2017-12-30T07:13:56.603Z,97836.69
2017-12-30T07:16:24.057Z,97838.38
2017-12-30T07:18:51.818Z,97842.16
2017-12-30T07:21:19.281Z,97849.44
2017-12-30T07:23:46.740Z,97851.19
2017-12-30T07:26:14.476Z,97849.23
2017-12-30T07:28:41.929Z,97846.25
2017-12-30T07:31:09.380Z,97846.70
2017-12-30T07:33:37.199Z,97842.48
2017-12-30T07:36:04.657Z,97851.41
2017-12-30T07:38:32.120Z,97863.86
2017-12-30T07:40:59.984Z,97867.70
2017-12-30T07:43:27.440Z,97857.94
2017-12-30T07:45:54.899Z,97856.13
2017-12-30T07:48:22.600Z,97856.88
2017-12-30T07:50:50.056Z,97845.55
2017-12-30T07:53:17.508Z,97836.39
2017-12-30T07:55:45.258Z,97835.93
2017-12-30T07:58:12.721Z,97835.06
2017-12-30T08:00:40.185Z,97839.19
2017-12-30T08:03:08.204Z,97836.06
2017-12-30T08:05:35.668Z,97846.76
2017-12-30T08:08:03.121Z,97846.47
2017-12-30T08:10:30.932Z,97850.88
2017-12-30T08:12:59.308Z,97842.12
2017-12-30T08:15:26.760Z,97847.34
2017-12-30T08:17:54.545Z,97836.77
2017-12-30T08:20:22.013Z,97842.41
2017-12-30T08:22:49.484Z,97841.25
2017-12-30T08:25:17.542Z,97838.67
2017-12-30T08:27:45.005Z,97838.80
2017-12-30T08:30:12.504Z,97838.11
2017-12-30T08:32:40.220Z,97825.25
2017-12-30T08:35:07.673Z,97824.19
2017-12-30T08:37:35.129Z,97810.66
2017-12-30T08:40:02.899Z,97814.34
2017-12-30T08:42:30.357Z,97811.67
2017-12-30T08:44:57.827Z,97814.85
2017-12-30T08:47:25.597Z,97818.25
2017-12-30T08:49:53.049Z,97825.01
2017-12-30T08:52:20.500Z,97819.81
2017-12-30T08:54:48.307Z,97814.44
2017-12-30T08:57:15.773Z,97818.61
2017-12-30T08:59:43.235Z,97808.15
2017-12-30T09:02:10.984Z,97813.70
2017-12-30T09:04:38.440Z,97808.39
2017-12-30T09:07:05.895Z,97814.27
2017-12-30T09:09:33.969Z,97805.40
2017-12-30T09:12:01.435Z,97811.32
2017-12-30T09:14:29.261Z,97801.03
2017-12-30T09:16:57.573Z,97812.70
2017-12-30T09:19:25.055Z,97817.17
2017-12-30T09:21:52.525Z,97815.20
2017-12-30T09:24:20.584Z,97813.75
2017-12-30T09:26:48.042Z,97809.65
2017-12-30T09:29:15.497Z,97810.95
2017-12-30T09:31:43.248Z,97795.34
2017-12-30T09:34:10.700Z,97790.66
2017-12-30T09:36:38.148Z,97774.21
2017-12-30T09:39:05.929Z,97777.59
2017-12-30T09:41:33.386Z,97780.63
2017-12-30T09:44:00.851Z,97796.00
2017-12-30T09:46:28.623Z,97790.88
2017-12-30T09:48:56.272Z,97783.24
2017-12-30T09:51:23.729Z,97783.71
2017-12-30T09:53:51.621Z,97776.98
2017-12-30T09:56:19.077Z,97776.55
2017-12-30T09:58:46.536Z,97780.56
2017-12-30T10:01:14.314Z,97768.69
2017-12-30T10:03:41.765Z,97758.97
2017-12-30T10:06:09.229Z,97755.78
2017-12-30T10:08:36.992Z,97737.37
2017-12-30T10:11:04.450Z,97737.68
2017-12-30T10:13:31.905Z,97727.28
2017-12-30T10:15:59.992Z,97729.22
2017-12-30T10:18:27.456Z,97722.48
2017-12-30T10:20:54.921Z,97711.38
2017-12-30T10:23:22.994Z,97713.47
2017-12-30T10:25:50.462Z,97715.47
2017-12-30T10:28:17.916Z,97717.64
2017-12-30T10:30:45.990Z,97724.51
2017-12-30T10:33:13.453Z,97718.57
2017-12-30T10:35:40.907Z,97694.32
2017-12-30T10:38:08.695Z,97692.36
2017-12-30T10:40:36.145Z,97696.47
2017-12-30T10:43:03.596Z,97689.30
2017-12-30T10:45:31.348Z,97686.05
2017-12-30T10:47:58.815Z,97690.08
2017-12-30T10:50:26.283Z,97687.53
2017-12-30T10:52:54.040Z,97693.69
2017-12-30T10:55:21.497Z,97690.64
2017-12-30T10:57:48.958Z,97683.65
2017-12-30T11:00:17.340Z,97664.95
2017-12-30T11:02:44.793Z,97664.08
2017-12-30T11:05:12.310Z,97656.61
2017-12-30T11:07:40.378Z,97654.09
2017-12-30T11:10:07.844Z,97650.68
2017-12-30T11:12:35.305Z,97641.91
2017-12-30T11:15:03.021Z,97633.85
2017-12-30T11:17:31.177Z,97618.77
2017-12-30T11:19:58.636Z,97619.44
2017-12-30T11:22:26.328Z,97611.24
2017-12-30T11:24:53.778Z,97601.52
2017-12-30T11:27:21.240Z,97598.17
2017-12-30T11:29:49.319Z,97595.22
2017-12-30T11:32:16.784Z,97593.09
2017-12-30T11:34:44.251Z,97584.91
2017-12-30T11:37:12.315Z,97583.34
2017-12-30T11:39:39.776Z,97578.36
2017-12-30T11:42:07.240Z,97571.59
2017-12-30T11:44:34.993Z,97568.15
2017-12-30T11:47:02.444Z,97569.56
2017-12-30T11:49:29.906Z,97566.53
2017-12-30T11:51:57.685Z,97564.34
2017-12-30T11:54:25.142Z,97573.07
2017-12-30T11:56:52.620Z,97565.20
2017-12-30T11:59:20.371Z,97559.69
2017-12-30T12:01:47.836Z,97547.29
2017-12-30T12:04:15.290Z,97540.97
2017-12-30T12:06:43.373Z,97536.66
2017-12-30T12:09:10.834Z,97545.12
2017-12-30T12:11:38.293Z,97553.87
2017-12-30T12:14:06.061Z,97562.11
2017-12-30T12:16:33.522Z,97553.45
2017-12-30T12:19:01.661Z,97552.96
2017-12-30T12:21:29.364Z,97549.88
2017-12-30T12:23:56.874Z,97546.56
2017-12-30T12:26:24.324Z,97543.75
2017-12-30T12:28:52.044Z,97543.61
2017-12-30T12:31:19.501Z,97524.18
2017-12-30T12:33:46.952Z,97525.67
2017-12-30T12:36:14.738Z,97518.50
2017-12-30T12:38:42.202Z,97517.28
2017-12-30T12:41:09.665Z,97515.05
2017-12-30T12:43:37.389Z,97520.97
2017-12-30T12:46:04.840Z,97508.39
2017-12-30T12:48:32.288Z,97506.48
2017-12-30T12:51:00.101Z,97504.73
2017-12-30T12:53:27.555Z,97507.41
2017-12-30T12:55:55.014Z,97516.97
2017-12-30T12:58:22.789Z,97525.61
2017-12-30T13:00:50.244Z,97509.27
2017-12-30T13:03:17.701Z,97503.19
2017-12-30T13:05:45.280Z,97495.68
2017-12-30T13:08:12.731Z,97491.71
2017-12-30T13:10:40.190Z,97492.11
2017-12-30T13:13:08.164Z,97492.20
2017-12-30T13:15:35.672Z,97489.45
2017-12-30T13:18:03.135Z,97488.05
2017-12-30T13:20:31.456Z,97490.14
2017-12-30T13:22:58.937Z,97485.75
2017-12-30T13:25:26.393Z,97494.33
2017-12-30T13:27:54.151Z,97495.38
2017-12-30T13:30:21.605Z,97496.31
2017-12-30T13:32:49.068Z,97491.70
2017-12-30T13:35:16.837Z,97492.33
2017-12-30T13:37:44.288Z,97496.12
2017-12-30T13:40:11.740Z,97504.00
2017-12-30T13:42:39.533Z,97498.06
2017-12-30T13:45:06.992Z,97494.05
2017-12-30T13:47:34.457Z,97483.69
2017-12-30T13:50:02.228Z,97475.45
2017-12-30T13:52:29.703Z,97461.97
2017-12-30T13:54:57.156Z,97451.38
2017-12-30T13:57:25.210Z,97459.41
2017-12-30T13:59:52.686Z,97468.00
2017-12-30T14:02:20.145Z,97476.70
2017-12-30T14:04:47.863Z,97477.96
2017-12-30T14:07:15.311Z,97473.05
2017-12-30T14:09:42.759Z,97463.29
2017-12-30T14:12:10.590Z,97474.39
2017-12-30T14:14:38.045Z,97479.41
2017-12-30T14:17:05.505Z,97460.72
2017-12-30T14:19:33.267Z,97457.45
2017-12-30T14:22:01.165Z,97461.92
2017-12-30T14:24:28.628Z,97467.78
2017-12-30T14:26:56.580Z,97476.16
2017-12-30T14:29:24.040Z,97488.32
2017-12-30T14:31:51.496Z,97485.11
2017-12-30T14:34:19.333Z,97504.41
2017-12-30T14:36:46.786Z,97501.02
2017-12-30T14:39:14.246Z,97504.75
2017-12-30T14:41:41.943Z,97519.38
2017-12-30T14:44:09.403Z,97511.48
2017-12-30T14:46:36.857Z,97518.72
2017-12-30T14:49:04.680Z,97521.73
2017-12-30T14:51:32.146Z,97521.83
2017-12-30T14:53:59.600Z,97519.98
2017-12-30T14:56:27.313Z,97523.13
2017-12-30T14:58:54.764Z,97516.18
2017-12-30T15:01:22.245Z,97514.36
2017-12-30T15:03:49.950Z,97504.95
2017-12-30T15:06:17.413Z,97511.83
2017-12-30T15:08:44.870Z,97505.19
2017-12-30T15:11:12.693Z,97497.22
2017-12-30T15:13:40.149Z,97499.78
2017-12-30T15:16:07.606Z,97485.59
2017-12-30T15:18:35.381Z,97481.25
2017-12-30T15:21:02.849Z,97478.94
2017-12-30T15:23:30.871Z,97499.84
2017-12-30T15:25:58.684Z,97508.09
2017-12-30T15:28:26.149Z,97525.73
2017-12-30T15:30:53.604Z,97527.25
2017-12-30T15:33:21.518Z,97534.52
2017-12-30T15:35:48.980Z,97532.56
2017-12-30T15:38:16.438Z,97535.36
2017-12-30T15:40:44.056Z,97530.73
2017-12-30T15:43:11.520Z,97520.29
2017-12-30T15:45:38.977Z,97520.12
2017-12-30T15:48:06.748Z,97519.41
2017-12-30T15:50:34.211Z,97526.56
2017-12-30T15:53:01.672Z,97531.77
2017-12-30T15:55:29.422Z,97546.66
2017-12-30T15:57:56.875Z,97552.38
2017-12-30T16:00:24.347Z,97553.77
2017-12-30T16:02:52.085Z,97556.16
2017-12-30T16:05:19.540Z,97569.61
2017-12-30T16:07:46.993Z,97566.23
2017-12-30T16:10:14.801Z,97562.66
2017-12-30T16:12:42.247Z,97575.78
2017-12-30T16:15:09.705Z,97578.77
2017-12-30T16:17:37.797Z,97580.80
2017-12-30T16:20:05.260Z,97572.31
2017-12-30T16:22:32.792Z,97568.36
2017-12-30T16:25:02.637Z,97580.20
2017-12-30T16:27:30.097Z,97594.97
2017-12-30T16:29:57.551Z,97560.59
2017-12-30T16:32:25.328Z,97586.67
2017-12-30T16:34:52.794Z,97594.69
2017-12-30T16:37:20.260Z,97591.72
2017-12-30T16:39:48.013Z,97579.69
2017-12-30T16:42:15.477Z,97579.66
2017-12-30T16:44:42.931Z,97597.12
2017-12-30T16:47:10.691Z,97601.59
2017-12-30T16:49:38.156Z,97606.23
2017-12-30T16:52:05.613Z,97623.98
2017-12-30T16:54:33.392Z,97616.61
2017-12-30T16:57:00.860Z,97593.24
2017-12-30T16:59:28.317Z,97589.53
2017-12-30T17:01:56.081Z,97593.59
2017-12-30T17:04:23.540Z,97612.03
2017-12-30T17:06:51.005Z,97610.84
2017-12-30T17:09:18.759Z,97631.98
2017-12-30T17:11:46.216Z,97618.19
2017-12-30T17:14:13.684Z,97626.80
2017-12-30T17:16:41.333Z,97623.81
2017-12-30T17:19:08.794Z,97645.34
2017-12-30T17:21:36.252Z,97638.26
2017-12-30T17:24:04.130Z,97632.77
2017-12-30T17:26:32.901Z,97638.00
2017-12-30T17:29:00.364Z,97630.02
2017-12-30T17:31:28.040Z,97639.45
2017-12-30T17:33:55.489Z,97636.16
2017-12-30T17:36:22.948Z,97634.95
2017-12-30T17:38:50.729Z,97615.36
2017-12-30T17:41:18.193Z,97631.58
2017-12-30T17:43:45.644Z,97635.36
2017-12-30T17:46:13.428Z,97651.61
2017-12-30T17:48:40.889Z,97662.32
2017-12-30T17:51:08.346Z,97671.91
2017-12-30T17:53:36.113Z,97660.66
2017-12-30T17:56:03.557Z,97652.83
2017-12-30T17:58:31.008Z,97669.24
2017-12-30T18:00:58.800Z,97666.33
2017-12-30T18:03:26.274Z,97660.16
2017-12-30T18:05:53.723Z,97666.75
2017-12-30T18:08:22.326Z,97646.17
2017-12-30T18:10:49.784Z,97648.73
2017-12-30T18:13:17.241Z,97644.95
2017-12-30T18:15:45.149Z,97645.19
2017-12-30T18:18:12.566Z,97645.95
2017-12-30T18:20:40.018Z,97646.30
2017-12-30T18:23:07.795Z,97637.50
2017-12-30T18:25:35.253Z,97647.01
2017-12-30T18:28:03.396Z,97649.20
2017-12-30T18:30:31.000Z,97658.33
2017-12-30T18:32:58.464Z,97681.33
2017-12-30T18:35:25.929Z,97664.41
2017-12-30T18:37:53.768Z,97683.28
2017-12-30T18:40:21.228Z,97674.05
2017-12-30T18:42:48.681Z,97662.63
2017-12-30T18:45:16.505Z,97658.02
2017-12-30T18:47:43.961Z,97644.55
2017-12-30T18:50:11.424Z,97648.06
2017-12-30T18:52:39.133Z,97649.23
2017-12-30T18:55:06.599Z,97664.22
2017-12-30T18:57:34.060Z,97674.50
2017-12-30T19:00:01.832Z,97662.58
2017-12-30T19:02:29.296Z,97671.41
2017-12-30T19:04:56.748Z,97675.80
2017-12-30T19:07:24.516Z,97676.48
2017-12-30T19:09:51.972Z,97677.98
2017-12-30T19:12:19.448Z,97658.42
2017-12-30T19:14:47.211Z,97680.45
2017-12-30T19:17:14.664Z,97690.25
2017-12-30T19:19:42.129Z,97701.59
2017-12-30T19:22:09.796Z,97699.08
2017-12-30T19:24:37.259Z,97691.02
2017-12-30T19:27:04.722Z,97678.81
2017-12-30T19:29:33.492Z,97685.61
2017-12-30T19:32:00.950Z,97698.87
2017-12-30T19:34:28.406Z,97695.78
2017-12-30T19:36:56.089Z,97703.26
2017-12-30T19:39:23.557Z,97707.14
2017-12-30T19:41:51.012Z,97702.66
2017-12-30T19:44:18.869Z,97702.71
2017-12-30T19:46:46.321Z,97700.72
2017-12-30T19:49:13.773Z,97684.55
2017-12-30T19:51:41.562Z,97695.25
2017-12-30T19:54:09.053Z,97704.98
2017-12-30T19:56:36.522Z,97712.41
2017-12-30T19:59:04.249Z,97696.12
2017-12-30T20:01:31.704Z,97707.48
2017-12-30T20:03:59.173Z,97698.41
2017-12-30T20:06:27.240Z,97706.56
2017-12-30T20:08:54.705Z,97715.67
2017-12-30T20:11:22.172Z,97717.14
2017-12-30T20:13:50.233Z,97715.69
2017-12-30T20:16:18.304Z,97712.45
2017-12-30T20:18:45.769Z,97712.22
2017-12-30T20:21:13.226Z,97694.06
2017-12-30T20:23:41.305Z,97705.22
2017-12-30T20:26:08.772Z,97715.72
2017-12-30T20:28:36.241Z,97709.77
2017-12-30T20:31:03.994Z,97713.13
2017-12-30T20:33:31.456Z,97716.11
2017-12-30T20:35:58.921Z,97719.66
2017-12-30T20:38:26.831Z,97729.45
2017-12-30T20:40:54.292Z,97733.50
2017-12-30T20:43:21.744Z,97720.03
2017-12-30T20:45:49.662Z,97732.73
2017-12-30T20:48:17.121Z,97732.24
2017-12-30T20:50:44.636Z,97741.52
2017-12-30T20:53:12.404Z,97725.47
2017-12-30T20:55:39.868Z,97735.95
2017-12-30T20:58:07.328Z,97732.80
2017-12-30T21:00:35.054Z,97712.38
2017-12-30T21:03:02.516Z,97714.61
2017-12-30T21:05:29.978Z,97710.91
2017-12-30T21:07:57.733Z,97724.91
2017-12-30T21:10:25.193Z,97722.13
2017-12-30T21:12:52.665Z,97728.31
2017-12-30T21:15:20.414Z,97734.15
2017-12-30T21:17:48.264Z,97713.47
2017-12-30T21:20:15.728Z,97698.98
2017-12-30T21:22:43.385Z,97713.33
2017-12-30T21:25:10.843Z,97709.05
2017-12-30T21:27:38.312Z,97722.79
2017-12-30T21:30:06.111Z,97719.58
2017-12-30T21:32:33.572Z,97724.02
2017-12-30T21:35:01.026Z,97735.87
2017-12-30T21:37:28.661Z,97729.94
2017-12-30T21:39:56.116Z,97711.16
2017-12-30T21:42:23.576Z,97710.13
2017-12-30T21:44:51.477Z,97713.92
2017-12-30T21:47:18.937Z,97689.44
2017-12-30T21:49:46.397Z,97702.45
2017-12-30T21:52:14.152Z,97690.58
2017-12-30T21:54:41.609Z,97700.44
2017-12-30T21:57:09.060Z,97684.34
2017-12-30T21:59:36.841Z,97695.25
2017-12-30T22:02:04.298Z,97698.87
2017-12-30T22:04:31.758Z,97699.22
2017-12-30T22:07:00.766Z,97702.42
2017-12-30T22:09:28.227Z,97711.41
2017-12-30T22:11:55.681Z,97711.75
2017-12-30T22:14:23.457Z,97718.44
2017-12-30T22:16:50.915Z,97724.31
2017-12-30T22:19:19.679Z,97726.02
2017-12-30T22:21:47.360Z,97720.45
2017-12-30T22:24:14.805Z,97719.48
2017-12-30T22:26:42.260Z,97704.92
2017-12-30T22:29:10.065Z,97702.69
2017-12-30T22:31:37.518Z,97691.59
2017-12-30T22:34:04.971Z,97691.03
2017-12-30T22:36:32.737Z,97690.58
2017-12-30T22:39:00.190Z,97694.40
2017-12-30T22:41:27.647Z,97699.37
2017-12-30T22:43:55.736Z,97698.86
2017-12-30T22:46:23.204Z,97705.72
2017-12-30T22:48:50.662Z,97704.89
2017-12-30T22:51:18.421Z,97707.66
2017-12-30T22:53:45.876Z,97712.02
2017-12-30T22:56:13.338Z,97718.14
2017-12-30T22:58:41.101Z,97716.72
2017-12-30T23:01:08.554Z,97733.27
2017-12-30T23:03:36.018Z,97732.50
2017-12-30T23:06:03.789Z,97736.45
2017-12-30T23:08:31.243Z,97735.30
2017-12-30T23:10:58.700Z,97732.70
2017-12-30T23:13:26.792Z,97736.87
2017-12-30T23:15:54.265Z,97728.54
2017-12-30T23:18:21.719Z,97716.23
2017-12-30T23:20:49.812Z,97714.09
2017-12-30T23:23:17.264Z,97731.13
2017-12-30T23:25:44.729Z,97735.42
2017-12-30T23:28:12.464Z,97743.94
2017-12-30T23:30:39.912Z,97737.91
2017-12-30T23:33:07.364Z,97738.53
2017-12-30T23:35:35.159Z,97741.47
2017-12-30T23:38:02.621Z,97739.61
2017-12-30T23:40:30.080Z,97730.77
2017-12-30T23:42:57.833Z,97738.69
2017-12-30T23:45:25.293Z,97738.65
2017-12-30T23:47:52.737Z,97745.00
2017-12-30T23:50:20.446Z,97729.44
2017-12-30T23:52:47.909Z,97721.20
2017-12-30T23:55:15.360Z,97714.89
2017-12-30T23:57:43.208Z,97712.70
